sensor_id;sensor_type;location;lat;lon;timestamp;P1;durP1;ratioP1;P2;durP2;ratioP2
32810;SDS011;65470;47.324;8.548;2023-02-23T00:01:49;21.05;;;14.43;;
32810;SDS011;65470;47.324;8.548;2023-02-23T00:04:15;18.75;;;13.40;;
32810;SDS011;65470;47.324;8.548;2023-02-23T00:06:42;20.75;;;13.50;;
32810;SDS011;65470;47.324;8.548;2023-02-23T00:09:08;15.90;;;13.25;;
32810;SDS011;65470;47.324;8.548;2023-02-23T00:11:46;22.85;;;14.00;;
32810;SDS011;65470;47.324;8.548;2023-02-23T00:14:16;18.52;;;12.98;;
32810;SDS011;65470;47.324;8.548;2023-02-23T00:16:42;17.73;;;13.98;;
32810;SDS011;65470;47.324;8.548;2023-02-23T00:19:11;15.43;;;13.32;;
32810;SDS011;65470;47.324;8.548;2023-02-23T00:21:38;15.07;;;13.05;;
32810;SDS011;65470;47.324;8.548;2023-02-23T00:24:14;14.10;;;12.23;;
32810;SDS011;65470;47.324;8.548;2023-02-23T00:26:40;15.57;;;12.25;;
32810;SDS011;65470;47.324;8.548;2023-02-23T00:29:27;13.68;;;11.48;;
32810;SDS011;65470;47.324;8.548;2023-02-23T00:31:52;16.40;;;12.10;;
32810;SDS011;65470;47.324;8.548;2023-02-23T00:34:20;16.85;;;11.93;;
32810;SDS011;65470;47.324;8.548;2023-02-23T00:36:47;15.57;;;11.95;;
32810;SDS011;65470;47.324;8.548;2023-02-23T00:39:15;15.20;;;12.52;;
32810;SDS011;65470;47.324;8.548;2023-02-23T00:41:49;16.25;;;12.65;;
32810;SDS011;65470;47.324;8.548;2023-02-23T00:44:16;16.15;;;12.77;;
32810;SDS011;65470;47.324;8.548;2023-02-23T00:46:42;14.93;;;12.52;;
32810;SDS011;65470;47.324;8.548;2023-02-23T00:49:12;16.77;;;12.15;;
32810;SDS011;65470;47.324;8.548;2023-02-23T00:51:39;16.63;;;12.38;;
32810;SDS011;65470;47.324;8.548;2023-02-23T00:54:05;17.88;;;12.10;;
32810;SDS011;65470;47.324;8.548;2023-02-23T00:56:31;18.45;;;12.73;;
32810;SDS011;65470;47.324;8.548;2023-02-23T00:58:57;19.02;;;12.75;;
32810;SDS011;65470;47.324;8.548;2023-02-23T01:01:23;17.48;;;12.68;;
32810;SDS011;65470;47.324;8.548;2023-02-23T01:03:49;16.13;;;13.23;;
32810;SDS011;65470;47.324;8.548;2023-02-23T01:06:17;17.40;;;13.68;;
32810;SDS011;65470;47.324;8.548;2023-02-23T01:08:44;15.20;;;12.90;;
32810;SDS011;65470;47.324;8.548;2023-02-23T01:11:15;20.13;;;15.25;;
32810;SDS011;65470;47.324;8.548;2023-02-23T01:13:45;20.70;;;16.10;;
32810;SDS011;65470;47.324;8.548;2023-02-23T01:16:13;24.25;;;17.25;;
32810;SDS011;65470;47.324;8.548;2023-02-23T01:18:41;24.70;;;19.25;;
32810;SDS011;65470;47.324;8.548;2023-02-23T01:21:18;27.02;;;21.52;;
32810;SDS011;65470;47.324;8.548;2023-02-23T01:23:49;33.88;;;24.63;;
32810;SDS011;65470;47.324;8.548;2023-02-23T01:26:20;32.80;;;25.15;;
32810;SDS011;65470;47.324;8.548;2023-02-23T01:28:51;34.55;;;28.25;;
32810;SDS011;65470;47.324;8.548;2023-02-23T01:31:18;40.28;;;29.35;;
32810;SDS011;65470;47.324;8.548;2023-02-23T01:33:47;41.47;;;28.92;;
32810;SDS011;65470;47.324;8.548;2023-02-23T01:36:20;42.45;;;29.73;;
32810;SDS011;65470;47.324;8.548;2023-02-23T01:38:47;43.08;;;29.63;;
32810;SDS011;65470;47.324;8.548;2023-02-23T01:41:13;47.63;;;32.10;;
32810;SDS011;65470;47.324;8.548;2023-02-23T01:43:55;48.28;;;31.83;;
32810;SDS011;65470;47.324;8.548;2023-02-23T01:46:30;44.05;;;33.35;;
32810;SDS011;65470;47.324;8.548;2023-02-23T01:48:57;49.60;;;32.35;;
32810;SDS011;65470;47.324;8.548;2023-02-23T01:51:27;47.45;;;30.92;;
32810;SDS011;65470;47.324;8.548;2023-02-23T01:53:59;44.63;;;33.03;;
32810;SDS011;65470;47.324;8.548;2023-02-23T01:56:47;47.00;;;33.97;;
32810;SDS011;65470;47.324;8.548;2023-02-23T01:59:22;49.05;;;34.13;;
32810;SDS011;65470;47.324;8.548;2023-02-23T02:01:52;47.42;;;33.45;;
32810;SDS011;65470;47.324;8.548;2023-02-23T02:04:18;45.15;;;33.55;;
32810;SDS011;65470;47.324;8.548;2023-02-23T02:06:45;45.75;;;34.20;;
32810;SDS011;65470;47.324;8.548;2023-02-23T02:09:18;47.55;;;31.50;;
32810;SDS011;65470;47.324;8.548;2023-02-23T02:11:49;41.65;;;30.98;;
32810;SDS011;65470;47.324;8.548;2023-02-23T02:14:19;42.13;;;30.40;;
32810;SDS011;65470;47.324;8.548;2023-02-23T02:16:51;41.88;;;31.40;;
32810;SDS011;65470;47.324;8.548;2023-02-23T02:30:37;44.17;;;30.45;;
32810;SDS011;65470;47.324;8.548;2023-02-23T02:33:38;43.92;;;29.80;;
32810;SDS011;65470;47.324;8.548;2023-02-23T02:41:50;38.75;;;28.75;;
32810;SDS011;65470;47.324;8.548;2023-02-23T02:44:29;36.60;;;27.33;;
32810;SDS011;65470;47.324;8.548;2023-02-23T02:47:07;41.20;;;29.50;;
32810;SDS011;65470;47.324;8.548;2023-02-23T02:52:39;36.95;;;26.98;;
32810;SDS011;65470;47.324;8.548;2023-02-23T02:55:20;38.33;;;28.02;;
32810;SDS011;65470;47.324;8.548;2023-02-23T02:57:52;38.80;;;27.58;;
32810;SDS011;65470;47.324;8.548;2023-02-23T03:03:44;45.85;;;28.73;;
32810;SDS011;65470;47.324;8.548;2023-02-23T03:06:31;40.38;;;27.73;;
32810;SDS011;65470;47.324;8.548;2023-02-23T03:21:20;33.90;;;25.65;;
32810;SDS011;65470;47.324;8.548;2023-02-23T03:24:26;36.70;;;26.58;;
32810;SDS011;65470;47.324;8.548;2023-02-23T03:30:34;41.42;;;26.42;;
32810;SDS011;65470;47.324;8.548;2023-02-23T03:33:31;34.83;;;23.50;;
32810;SDS011;65470;47.324;8.548;2023-02-23T03:36:29;35.05;;;25.73;;
32810;SDS011;65470;47.324;8.548;2023-02-23T03:39:21;35.75;;;24.20;;
32810;SDS011;65470;47.324;8.548;2023-02-23T03:42:14;34.17;;;24.00;;
32810;SDS011;65470;47.324;8.548;2023-02-23T03:45:03;30.63;;;24.60;;
32810;SDS011;65470;47.324;8.548;2023-02-23T03:47:52;33.28;;;25.92;;
32810;SDS011;65470;47.324;8.548;2023-02-23T03:50:44;34.10;;;24.00;;
32810;SDS011;65470;47.324;8.548;2023-02-23T03:56:40;30.52;;;23.83;;
32810;SDS011;65470;47.324;8.548;2023-02-23T03:59:29;34.80;;;24.58;;
32810;SDS011;65470;47.324;8.548;2023-02-23T04:02:16;36.90;;;24.48;;
32810;SDS011;65470;47.324;8.548;2023-02-23T04:05:04;27.92;;;22.13;;
32810;SDS011;65470;47.324;8.548;2023-02-23T04:07:52;27.67;;;21.40;;
32810;SDS011;65470;47.324;8.548;2023-02-23T04:10:40;30.90;;;21.58;;
32810;SDS011;65470;47.324;8.548;2023-02-23T04:13:33;28.00;;;22.05;;
32810;SDS011;65470;47.324;8.548;2023-02-23T04:16:04;36.67;;;25.80;;
32810;SDS011;65470;47.324;8.548;2023-02-23T04:18:33;35.35;;;24.52;;
32810;SDS011;65470;47.324;8.548;2023-02-23T04:21:00;37.17;;;25.83;;
32810;SDS011;65470;47.324;8.548;2023-02-23T04:23:27;34.20;;;26.08;;
32810;SDS011;65470;47.324;8.548;2023-02-23T04:25:53;35.40;;;27.17;;
32810;SDS011;65470;47.324;8.548;2023-02-23T04:28:20;35.08;;;27.05;;
32810;SDS011;65470;47.324;8.548;2023-02-23T04:30:46;35.15;;;27.08;;
32810;SDS011;65470;47.324;8.548;2023-02-23T04:33:12;34.38;;;25.65;;
32810;SDS011;65470;47.324;8.548;2023-02-23T04:35:38;35.17;;;25.70;;
32810;SDS011;65470;47.324;8.548;2023-02-23T04:38:04;34.97;;;26.35;;
32810;SDS011;65470;47.324;8.548;2023-02-23T04:40:30;31.17;;;25.17;;
32810;SDS011;65470;47.324;8.548;2023-02-23T04:42:55;32.40;;;22.40;;
32810;SDS011;65470;47.324;8.548;2023-02-23T04:45:22;26.52;;;19.75;;
32810;SDS011;65470;47.324;8.548;2023-02-23T04:47:48;27.38;;;21.08;;
32810;SDS011;65470;47.324;8.548;2023-02-23T04:50:14;29.20;;;18.80;;
32810;SDS011;65470;47.324;8.548;2023-02-23T04:52:40;27.52;;;18.95;;
32810;SDS011;65470;47.324;8.548;2023-02-23T04:55:06;26.67;;;18.48;;
32810;SDS011;65470;47.324;8.548;2023-02-23T04:57:36;20.15;;;16.45;;
32810;SDS011;65470;47.324;8.548;2023-02-23T05:00:03;23.27;;;18.98;;
32810;SDS011;65470;47.324;8.548;2023-02-23T05:02:29;29.25;;;17.83;;
32810;SDS011;65470;47.324;8.548;2023-02-23T05:04:56;26.80;;;22.73;;
32810;SDS011;65470;47.324;8.548;2023-02-23T05:07:21;34.20;;;24.80;;
32810;SDS011;65470;47.324;8.548;2023-02-23T05:09:47;36.00;;;25.08;;
32810;SDS011;65470;47.324;8.548;2023-02-23T05:12:13;31.55;;;24.33;;
32810;SDS011;65470;47.324;8.548;2023-02-23T05:14:38;28.48;;;21.50;;
32810;SDS011;65470;47.324;8.548;2023-02-23T05:17:06;30.83;;;21.15;;
32810;SDS011;65470;47.324;8.548;2023-02-23T05:19:32;30.67;;;23.48;;
32810;SDS011;65470;47.324;8.548;2023-02-23T05:21:58;28.92;;;21.88;;
32810;SDS011;65470;47.324;8.548;2023-02-23T05:24:23;29.15;;;24.27;;
32810;SDS011;65470;47.324;8.548;2023-02-23T05:26:49;28.30;;;21.10;;
32810;SDS011;65470;47.324;8.548;2023-02-23T05:29:15;27.92;;;21.60;;
32810;SDS011;65470;47.324;8.548;2023-02-23T05:31:41;28.70;;;21.88;;
32810;SDS011;65470;47.324;8.548;2023-02-23T05:34:06;27.52;;;21.88;;
32810;SDS011;65470;47.324;8.548;2023-02-23T05:36:32;30.88;;;23.30;;
32810;SDS011;65470;47.324;8.548;2023-02-23T05:38:58;30.42;;;23.20;;
32810;SDS011;65470;47.324;8.548;2023-02-23T05:41:24;31.75;;;22.75;;
32810;SDS011;65470;47.324;8.548;2023-02-23T05:43:50;34.78;;;25.10;;
32810;SDS011;65470;47.324;8.548;2023-02-23T05:46:19;32.33;;;25.00;;
32810;SDS011;65470;47.324;8.548;2023-02-23T05:48:48;32.22;;;24.83;;
32810;SDS011;65470;47.324;8.548;2023-02-23T05:51:14;35.30;;;26.00;;
32810;SDS011;65470;47.324;8.548;2023-02-23T05:53:40;34.85;;;26.67;;
32810;SDS011;65470;47.324;8.548;2023-02-23T05:56:07;37.80;;;25.85;;
32810;SDS011;65470;47.324;8.548;2023-02-23T05:58:35;32.35;;;23.85;;
32810;SDS011;65470;47.324;8.548;2023-02-23T06:01:01;29.80;;;24.15;;
32810;SDS011;65470;47.324;8.548;2023-02-23T06:03:27;40.47;;;31.23;;
32810;SDS011;65470;47.324;8.548;2023-02-23T06:05:54;42.20;;;31.25;;
32810;SDS011;65470;47.324;8.548;2023-02-23T06:08:21;47.20;;;34.45;;
32810;SDS011;65470;47.324;8.548;2023-02-23T06:10:47;57.40;;;38.13;;
32810;SDS011;65470;47.324;8.548;2023-02-23T06:13:13;56.42;;;40.13;;
32810;SDS011;65470;47.324;8.548;2023-02-23T06:15:40;52.40;;;37.47;;
32810;SDS011;65470;47.324;8.548;2023-02-23T06:18:06;48.90;;;37.35;;
32810;SDS011;65470;47.324;8.548;2023-02-23T06:20:35;57.20;;;39.47;;
32810;SDS011;65470;47.324;8.548;2023-02-23T06:23:02;62.00;;;41.50;;
32810;SDS011;65470;47.324;8.548;2023-02-23T06:25:28;55.35;;;38.58;;
32810;SDS011;65470;47.324;8.548;2023-02-23T06:27:55;56.50;;;39.42;;
32810;SDS011;65470;47.324;8.548;2023-02-23T06:30:21;53.17;;;38.60;;
32810;SDS011;65470;47.324;8.548;2023-02-23T06:32:46;57.10;;;39.17;;
32810;SDS011;65470;47.324;8.548;2023-02-23T06:35:12;51.10;;;36.03;;
32810;SDS011;65470;47.324;8.548;2023-02-23T06:37:38;50.15;;;36.20;;
32810;SDS011;65470;47.324;8.548;2023-02-23T06:40:03;51.97;;;37.55;;
32810;SDS011;65470;47.324;8.548;2023-02-23T06:42:30;55.47;;;37.08;;
32810;SDS011;65470;47.324;8.548;2023-02-23T06:44:55;52.25;;;37.30;;
32810;SDS011;65470;47.324;8.548;2023-02-23T06:47:21;56.80;;;39.92;;
32810;SDS011;65470;47.324;8.548;2023-02-23T06:49:47;50.90;;;36.55;;
32810;SDS011;65470;47.324;8.548;2023-02-23T06:52:12;57.15;;;39.15;;
32810;SDS011;65470;47.324;8.548;2023-02-23T06:54:39;53.42;;;37.97;;
32810;SDS011;65470;47.324;8.548;2023-02-23T06:57:05;46.08;;;34.67;;
32810;SDS011;65470;47.324;8.548;2023-02-23T06:59:32;50.60;;;35.28;;
32810;SDS011;65470;47.324;8.548;2023-02-23T07:01:57;50.67;;;36.97;;
32810;SDS011;65470;47.324;8.548;2023-02-23T07:04:23;52.20;;;36.55;;
32810;SDS011;65470;47.324;8.548;2023-02-23T07:06:49;46.30;;;35.90;;
32810;SDS011;65470;47.324;8.548;2023-02-23T07:09:15;48.58;;;35.40;;
32810;SDS011;65470;47.324;8.548;2023-02-23T07:11:41;45.35;;;34.28;;
32810;SDS011;65470;47.324;8.548;2023-02-23T07:14:09;48.47;;;35.67;;
32810;SDS011;65470;47.324;8.548;2023-02-23T07:16:35;43.13;;;32.40;;
32810;SDS011;65470;47.324;8.548;2023-02-23T07:19:01;42.78;;;32.20;;
32810;SDS011;65470;47.324;8.548;2023-02-23T07:21:27;43.10;;;33.00;;
32810;SDS011;65470;47.324;8.548;2023-02-23T07:23:55;38.55;;;29.60;;
32810;SDS011;65470;47.324;8.548;2023-02-23T07:26:21;31.58;;;26.20;;
32810;SDS011;65470;47.324;8.548;2023-02-23T07:28:47;33.25;;;25.67;;
32810;SDS011;65470;47.324;8.548;2023-02-23T07:31:13;36.00;;;25.95;;
32810;SDS011;65470;47.324;8.548;2023-02-23T07:33:38;33.25;;;23.80;;
32810;SDS011;65470;47.324;8.548;2023-02-23T07:36:04;31.23;;;24.50;;
32810;SDS011;65470;47.324;8.548;2023-02-23T07:38:30;30.33;;;23.02;;
32810;SDS011;65470;47.324;8.548;2023-02-23T07:40:56;29.23;;;22.33;;
32810;SDS011;65470;47.324;8.548;2023-02-23T07:43:21;28.77;;;22.40;;
32810;SDS011;65470;47.324;8.548;2023-02-23T07:45:48;27.27;;;20.63;;
32810;SDS011;65470;47.324;8.548;2023-02-23T07:48:15;28.30;;;21.95;;
32810;SDS011;65470;47.324;8.548;2023-02-23T07:50:42;30.00;;;22.90;;
32810;SDS011;65470;47.324;8.548;2023-02-23T07:53:07;27.15;;;22.17;;
32810;SDS011;65470;47.324;8.548;2023-02-23T07:55:33;34.05;;;25.48;;
32810;SDS011;65470;47.324;8.548;2023-02-23T07:58:02;33.05;;;26.08;;
32810;SDS011;65470;47.324;8.548;2023-02-23T08:00:28;32.30;;;26.13;;
32810;SDS011;65470;47.324;8.548;2023-02-23T08:02:54;37.35;;;27.27;;
32810;SDS011;65470;47.324;8.548;2023-02-23T08:05:20;35.15;;;26.35;;
32810;SDS011;65470;47.324;8.548;2023-02-23T08:07:45;36.67;;;29.20;;
32810;SDS011;65470;47.324;8.548;2023-02-23T08:10:11;34.55;;;27.63;;
32810;SDS011;65470;47.324;8.548;2023-02-23T08:12:37;34.58;;;27.50;;
32810;SDS011;65470;47.324;8.548;2023-02-23T08:15:03;32.65;;;27.75;;
32810;SDS011;65470;47.324;8.548;2023-02-23T08:17:35;34.08;;;27.27;;
32810;SDS011;65470;47.324;8.548;2023-02-23T08:20:01;32.90;;;27.13;;
32810;SDS011;65470;47.324;8.548;2023-02-23T08:22:28;36.00;;;28.30;;
32810;SDS011;65470;47.324;8.548;2023-02-23T08:24:54;37.30;;;28.35;;
32810;SDS011;65470;47.324;8.548;2023-02-23T08:27:19;30.70;;;26.63;;
32810;SDS011;65470;47.324;8.548;2023-02-23T08:29:45;31.27;;;26.55;;
32810;SDS011;65470;47.324;8.548;2023-02-23T08:32:11;31.40;;;26.90;;
32810;SDS011;65470;47.324;8.548;2023-02-23T08:34:38;33.70;;;27.15;;
32810;SDS011;65470;47.324;8.548;2023-02-23T08:37:05;35.70;;;26.60;;
32810;SDS011;65470;47.324;8.548;2023-02-23T08:39:31;32.72;;;25.63;;
32810;SDS011;65470;47.324;8.548;2023-02-23T08:41:57;30.17;;;25.30;;
32810;SDS011;65470;47.324;8.548;2023-02-23T08:44:22;31.35;;;25.13;;
32810;SDS011;65470;47.324;8.548;2023-02-23T08:46:48;28.38;;;23.50;;
32810;SDS011;65470;47.324;8.548;2023-02-23T08:49:14;28.30;;;23.38;;
32810;SDS011;65470;47.324;8.548;2023-02-23T08:51:39;27.30;;;21.25;;
32810;SDS011;65470;47.324;8.548;2023-02-23T08:54:06;28.85;;;22.75;;
32810;SDS011;65470;47.324;8.548;2023-02-23T08:56:38;30.02;;;22.65;;
32810;SDS011;65470;47.324;8.548;2023-02-23T08:59:04;24.90;;;20.30;;
32810;SDS011;65470;47.324;8.548;2023-02-23T09:01:29;24.33;;;19.58;;
32810;SDS011;65470;47.324;8.548;2023-02-23T09:03:55;21.92;;;19.00;;
32810;SDS011;65470;47.324;8.548;2023-02-23T09:06:22;23.58;;;19.50;;
32810;SDS011;65470;47.324;8.548;2023-02-23T09:08:49;24.20;;;19.77;;
32810;SDS011;65470;47.324;8.548;2023-02-23T09:11:15;20.85;;;17.65;;
32810;SDS011;65470;47.324;8.548;2023-02-23T09:13:41;23.95;;;19.55;;
32810;SDS011;65470;47.324;8.548;2023-02-23T09:16:07;21.70;;;18.20;;
32810;SDS011;65470;47.324;8.548;2023-02-23T09:18:33;27.13;;;21.05;;
32810;SDS011;65470;47.324;8.548;2023-02-23T09:21:01;23.20;;;20.17;;
32810;SDS011;65470;47.324;8.548;2023-02-23T09:23:31;19.88;;;16.15;;
32810;SDS011;65470;47.324;8.548;2023-02-23T09:26:01;21.55;;;16.50;;
32810;SDS011;65470;47.324;8.548;2023-02-23T09:28:27;18.02;;;14.45;;
32810;SDS011;65470;47.324;8.548;2023-02-23T09:30:54;21.98;;;15.30;;
32810;SDS011;65470;47.324;8.548;2023-02-23T09:33:21;16.73;;;14.68;;
32810;SDS011;65470;47.324;8.548;2023-02-23T09:35:47;18.83;;;15.25;;
32810;SDS011;65470;47.324;8.548;2023-02-23T09:38:13;15.95;;;13.93;;
32810;SDS011;65470;47.324;8.548;2023-02-23T09:40:43;18.88;;;14.43;;
32810;SDS011;65470;47.324;8.548;2023-02-23T09:43:15;19.30;;;14.88;;
32810;SDS011;65470;47.324;8.548;2023-02-23T09:48:45;16.83;;;14.52;;
32810;SDS011;65470;47.324;8.548;2023-02-23T09:51:14;17.27;;;14.98;;
32810;SDS011;65470;47.324;8.548;2023-02-23T09:53:47;19.67;;;14.23;;
32810;SDS011;65470;47.324;8.548;2023-02-23T09:58:53;19.80;;;14.02;;
32810;SDS011;65470;47.324;8.548;2023-02-23T10:23:39;13.60;;;10.50;;
32810;SDS011;65470;47.324;8.548;2023-02-23T10:26:17;22.00;;;11.73;;
32810;SDS011;65470;47.324;8.548;2023-02-23T10:28:46;12.75;;;10.32;;
32810;SDS011;65470;47.324;8.548;2023-02-23T10:31:23;13.80;;;10.93;;
32810;SDS011;65470;47.324;8.548;2023-02-23T10:33:52;18.20;;;10.77;;
32810;SDS011;65470;47.324;8.548;2023-02-23T10:36:41;17.77;;;10.68;;
32810;SDS011;65470;47.324;8.548;2023-02-23T10:39:10;13.95;;;11.30;;
32810;SDS011;65470;47.324;8.548;2023-02-23T10:41:37;11.23;;;9.93;;
32810;SDS011;65470;47.324;8.548;2023-02-23T10:44:04;12.55;;;10.73;;
32810;SDS011;65470;47.324;8.548;2023-02-23T10:46:37;13.15;;;9.50;;
32810;SDS011;65470;47.324;8.548;2023-02-23T10:49:05;11.15;;;9.23;;
32810;SDS011;65470;47.324;8.548;2023-02-23T10:51:36;14.35;;;9.65;;
32810;SDS011;65470;47.324;8.548;2023-02-23T10:57:08;9.13;;;8.13;;
32810;SDS011;65470;47.324;8.548;2023-02-23T10:59:39;14.82;;;7.97;;
32810;SDS011;65470;47.324;8.548;2023-02-23T11:02:21;9.60;;;7.57;;
32810;SDS011;65470;47.324;8.548;2023-02-23T11:04:50;16.00;;;8.30;;
32810;SDS011;65470;47.324;8.548;2023-02-23T11:07:22;11.93;;;8.63;;
32810;SDS011;65470;47.324;8.548;2023-02-23T11:09:53;8.90;;;8.00;;
32810;SDS011;65470;47.324;8.548;2023-02-23T11:12:21;12.65;;;8.70;;
32810;SDS011;65470;47.324;8.548;2023-02-23T11:14:59;9.00;;;8.07;;
32810;SDS011;65470;47.324;8.548;2023-02-23T11:17:53;12.45;;;8.10;;
32810;SDS011;65470;47.324;8.548;2023-02-23T11:20:23;11.68;;;9.20;;
32810;SDS011;65470;47.324;8.548;2023-02-23T11:22:53;11.95;;;7.90;;
32810;SDS011;65470;47.324;8.548;2023-02-23T11:25:38;10.30;;;7.10;;
32810;SDS011;65470;47.324;8.548;2023-02-23T11:28:14;8.10;;;7.30;;
32810;SDS011;65470;47.324;8.548;2023-02-23T11:30:44;8.70;;;7.80;;
32810;SDS011;65470;47.324;8.548;2023-02-23T11:33:14;10.85;;;9.00;;
32810;SDS011;65470;47.324;8.548;2023-02-23T11:35:47;9.82;;;7.65;;
32810;SDS011;65470;47.324;8.548;2023-02-23T11:38:23;8.38;;;7.57;;
32810;SDS011;65470;47.324;8.548;2023-02-23T11:41:04;7.53;;;6.82;;
32810;SDS011;65470;47.324;8.548;2023-02-23T11:43:46;8.85;;;7.82;;
32810;SDS011;65470;47.324;8.548;2023-02-23T11:46:17;9.75;;;7.03;;
32810;SDS011;65470;47.324;8.548;2023-02-23T11:51:32;10.45;;;7.05;;
32810;SDS011;65470;47.324;8.548;2023-02-23T11:54:01;10.02;;;8.38;;
32810;SDS011;65470;47.324;8.548;2023-02-23T11:56:29;12.15;;;8.23;;
32810;SDS011;65470;47.324;8.548;2023-02-23T11:59:03;8.40;;;7.60;;
32810;SDS011;65470;47.324;8.548;2023-02-23T12:01:37;10.52;;;8.05;;
32810;SDS011;65470;47.324;8.548;2023-02-23T12:04:27;10.23;;;8.52;;
32810;SDS011;65470;47.324;8.548;2023-02-23T12:06:56;12.35;;;7.50;;
32810;SDS011;65470;47.324;8.548;2023-02-23T12:09:59;9.60;;;8.55;;
32810;SDS011;65470;47.324;8.548;2023-02-23T12:12:35;10.60;;;6.95;;
32810;SDS011;65470;47.324;8.548;2023-02-23T12:15:33;10.85;;;8.75;;
32810;SDS011;65470;47.324;8.548;2023-02-23T12:24:18;23.63;;;9.43;;
32810;SDS011;65470;47.324;8.548;2023-02-23T12:27:20;17.23;;;10.30;;
32810;SDS011;65470;47.324;8.548;2023-02-23T12:35:11;15.82;;;9.20;;
32810;SDS011;65470;47.324;8.548;2023-02-23T12:38:10;11.73;;;8.68;;
32810;SDS011;65470;47.324;8.548;2023-02-23T12:40:51;21.95;;;9.68;;
32810;SDS011;65470;47.324;8.548;2023-02-23T12:43:32;15.15;;;9.43;;
32810;SDS011;65470;47.324;8.548;2023-02-23T12:46:08;35.95;;;9.43;;
32810;SDS011;65470;47.324;8.548;2023-02-23T12:51:34;10.32;;;6.82;;
32810;SDS011;65470;47.324;8.548;2023-02-23T12:54:04;15.98;;;6.45;;
32810;SDS011;65470;47.324;8.548;2023-02-23T13:13:16;13.50;;;6.97;;
32810;SDS011;65470;47.324;8.548;2023-02-23T13:15:55;13.02;;;7.68;;
32810;SDS011;65470;47.324;8.548;2023-02-23T13:18:51;11.23;;;7.88;;
32810;SDS011;65470;47.324;8.548;2023-02-23T13:21:36;8.68;;;7.05;;
32810;SDS011;65470;47.324;8.548;2023-02-23T13:24:16;14.13;;;7.85;;
32810;SDS011;65470;47.324;8.548;2023-02-23T13:26:52;7.88;;;6.20;;
32810;SDS011;65470;47.324;8.548;2023-02-23T13:32:13;13.65;;;6.43;;
32810;SDS011;65470;47.324;8.548;2023-02-23T13:34:48;20.10;;;8.25;;
32810;SDS011;65470;47.324;8.548;2023-02-23T13:37:21;17.05;;;6.75;;
32810;SDS011;65470;47.324;8.548;2023-02-23T13:44:01;12.07;;;7.00;;
32810;SDS011;65470;47.324;8.548;2023-02-23T13:51:27;13.95;;;6.97;;
32810;SDS011;65470;47.324;8.548;2023-02-23T13:56:59;28.85;;;7.00;;
32810;SDS011;65470;47.324;8.548;2023-02-23T13:59:30;30.48;;;9.45;;
32810;SDS011;65470;47.324;8.548;2023-02-23T14:02:29;13.57;;;6.80;;
32810;SDS011;65470;47.324;8.548;2023-02-23T14:05:02;15.02;;;6.32;;
32810;SDS011;65470;47.324;8.548;2023-02-23T14:07:41;14.90;;;6.68;;
32810;SDS011;65470;47.324;8.548;2023-02-23T14:10:14;13.27;;;6.57;;
32810;SDS011;65470;47.324;8.548;2023-02-23T14:13:03;19.85;;;7.00;;
32810;SDS011;65470;47.324;8.548;2023-02-23T14:20:54;48.13;;;12.55;;
32810;SDS011;65470;47.324;8.548;2023-02-23T14:23:32;21.23;;;7.88;;
32810;SDS011;65470;47.324;8.548;2023-02-23T14:26:12;16.48;;;7.35;;
32810;SDS011;65470;47.324;8.548;2023-02-23T14:34:46;13.02;;;7.07;;
32810;SDS011;65470;47.324;8.548;2023-02-23T14:37:18;15.73;;;6.70;;
32810;SDS011;65470;47.324;8.548;2023-02-23T14:39:52;15.85;;;6.97;;
32810;SDS011;65470;47.324;8.548;2023-02-23T14:42:24;22.33;;;6.95;;
32810;SDS011;65470;47.324;8.548;2023-02-23T14:44:53;12.80;;;8.02;;
32810;SDS011;65470;47.324;8.548;2023-02-23T14:47:21;19.48;;;7.10;;
32810;SDS011;65470;47.324;8.548;2023-02-23T14:49:52;16.20;;;7.05;;
32810;SDS011;65470;47.324;8.548;2023-02-23T14:52:34;32.28;;;9.00;;
32810;SDS011;65470;47.324;8.548;2023-02-23T14:57:36;11.15;;;6.20;;
32810;SDS011;65470;47.324;8.548;2023-02-23T15:00:18;27.90;;;7.15;;
32810;SDS011;65470;47.324;8.548;2023-02-23T15:05:40;20.38;;;7.57;;
32810;SDS011;65470;47.324;8.548;2023-02-23T15:08:20;23.38;;;7.65;;
32810;SDS011;65470;47.324;8.548;2023-02-23T15:10:49;24.05;;;9.07;;
32810;SDS011;65470;47.324;8.548;2023-02-23T15:15:56;13.68;;;6.97;;
32810;SDS011;65470;47.324;8.548;2023-02-23T15:18:37;13.57;;;7.97;;
32810;SDS011;65470;47.324;8.548;2023-02-23T15:21:23;15.95;;;7.25;;
32810;SDS011;65470;47.324;8.548;2023-02-23T15:24:01;18.02;;;7.80;;
32810;SDS011;65470;47.324;8.548;2023-02-23T15:26:35;13.45;;;7.22;;
32810;SDS011;65470;47.324;8.548;2023-02-23T15:29:11;17.05;;;7.65;;
32810;SDS011;65470;47.324;8.548;2023-02-23T15:31:39;12.82;;;7.07;;
32810;SDS011;65470;47.324;8.548;2023-02-23T15:34:17;17.13;;;8.10;;
32810;SDS011;65470;47.324;8.548;2023-02-23T15:36:45;10.75;;;7.18;;
32810;SDS011;65470;47.324;8.548;2023-02-23T15:41:59;16.85;;;7.32;;
32810;SDS011;65470;47.324;8.548;2023-02-23T15:44:26;17.00;;;8.18;;
32810;SDS011;65470;47.324;8.548;2023-02-23T15:46:58;17.17;;;8.35;;
32810;SDS011;65470;47.324;8.548;2023-02-23T15:49:28;13.20;;;9.07;;
32810;SDS011;65470;47.324;8.548;2023-02-23T15:51:57;13.57;;;7.75;;
32810;SDS011;65470;47.324;8.548;2023-02-23T15:54:31;12.95;;;8.02;;
32810;SDS011;65470;47.324;8.548;2023-02-23T15:57:26;13.15;;;7.63;;
32810;SDS011;65470;47.324;8.548;2023-02-23T15:59:52;16.63;;;7.38;;
32810;SDS011;65470;47.324;8.548;2023-02-23T16:02:22;14.95;;;7.70;;
32810;SDS011;65470;47.324;8.548;2023-02-23T16:04:49;22.13;;;7.63;;
32810;SDS011;65470;47.324;8.548;2023-02-23T16:09:47;21.88;;;10.15;;
32810;SDS011;65470;47.324;8.548;2023-02-23T16:15:00;18.27;;;9.90;;
32810;SDS011;65470;47.324;8.548;2023-02-23T16:20:26;19.60;;;9.68;;
32810;SDS011;65470;47.324;8.548;2023-02-23T16:23:52;19.25;;;9.95;;
32810;SDS011;65470;47.324;8.548;2023-02-23T16:26:10;21.55;;;10.27;;
32810;SDS011;65470;47.324;8.548;2023-02-23T16:28:42;18.77;;;11.07;;
32810;SDS011;65470;47.324;8.548;2023-02-23T16:31:10;19.25;;;10.02;;
32810;SDS011;65470;47.324;8.548;2023-02-23T16:38:39;23.25;;;8.18;;
32810;SDS011;65470;47.324;8.548;2023-02-23T16:41:19;17.70;;;8.57;;
32810;SDS011;65470;47.324;8.548;2023-02-23T16:43:49;20.08;;;8.98;;
32810;SDS011;65470;47.324;8.548;2023-02-23T16:46:16;16.35;;;8.05;;
32810;SDS011;65470;47.324;8.548;2023-02-23T16:48:42;27.38;;;9.50;;
32810;SDS011;65470;47.324;8.548;2023-02-23T16:51:15;18.92;;;9.23;;
32810;SDS011;65470;47.324;8.548;2023-02-23T16:53:42;16.15;;;8.57;;
32810;SDS011;65470;47.324;8.548;2023-02-23T16:56:09;15.52;;;9.13;;
32810;SDS011;65470;47.324;8.548;2023-02-23T16:58:40;15.73;;;9.05;;
32810;SDS011;65470;47.324;8.548;2023-02-23T17:01:10;21.30;;;8.65;;
32810;SDS011;65470;47.324;8.548;2023-02-23T17:03:38;23.98;;;9.70;;
32810;SDS011;65470;47.324;8.548;2023-02-23T17:06:04;21.08;;;9.45;;
32810;SDS011;65470;47.324;8.548;2023-02-23T17:08:31;15.70;;;8.93;;
32810;SDS011;65470;47.324;8.548;2023-02-23T17:10:58;16.85;;;8.25;;
32810;SDS011;65470;47.324;8.548;2023-02-23T17:13:25;18.02;;;8.55;;
32810;SDS011;65470;47.324;8.548;2023-02-23T17:15:53;19.42;;;8.52;;
32810;SDS011;65470;47.324;8.548;2023-02-23T17:18:30;19.25;;;9.13;;
32810;SDS011;65470;47.324;8.548;2023-02-23T17:20:59;16.95;;;9.05;;
32810;SDS011;65470;47.324;8.548;2023-02-23T17:23:27;17.58;;;8.13;;
32810;SDS011;65470;47.324;8.548;2023-02-23T17:26:02;16.98;;;8.55;;
32810;SDS011;65470;47.324;8.548;2023-02-23T17:28:29;20.30;;;8.57;;